Time;durP1;ratioP1;P1;durP2;ratioP2;P2;SDS_P1;SDS_P2;PMS_P1;PMS_P2;Temp;Humidity;BMP_temperature;BMP_pressure;BME280_temperature;BME280_humidity;BME280_pressure;Samples;Min_cycle;Max_cycle;Signal;HPM_P1;HPM_P2
2022/04/27 00:04:34;;;;;;;62.27;58.37;;;;;;;7.85;100.00;102544.31;1862423;74;86638;-73
2022/04/27 00:10:19;;;;;;;61.17;57.27;;;;;;;7.85;100.00;102545.69;1950226;73;86574;-72
2022/04/27 00:16:03;;;;;;;63.10;58.93;;;;;;;7.94;100.00;102549.88;1804422;78;86579;-71
2022/04/27 00:21:48;;;;;;;63.70;59.70;;;;;;;7.84;100.00;102551.44;1801375;78;86118;-72
2022/04/27 00:27:33;;;;;;;61.77;57.87;;;;;;;7.90;100.00;102553.32;1806011;77;86252;-72
2022/04/27 00:33:17;;;;;;;63.37;59.37;;;;;;;7.95;100.00;102552.11;1816003;78;86604;-71
2022/04/27 00:39:01;;;;;;;63.80;59.80;;;;;;;7.94;100.00;102548.49;1832365;76;86257;-72
2022/04/27 00:44:46;;;;;;;63.60;59.43;;;;;;;7.30;100.00;102559.83;1838167;76;86272;-72
2022/04/27 00:50:31;;;;;;;61.10;56.93;;;;;;;7.59;100.00;102561.11;1863231;76;86542;-73
2022/04/27 00:59:23;;;;;;;62.27;58.27;;;;;;;7.42;100.00;102558.04;1894461;74;86387;-71
2022/04/27 01:01:54;;;;;;;60.43;56.43;;;;;;;7.25;100.00;102569.31;1785239;78;936754;-71
2022/04/27 01:04:24;;;;;;;61.23;57.17;;;;;;;7.22;100.00;102571.14;1776157;79;938801;-73
2022/04/27 01:06:54;;;;;;;62.57;58.37;;;;;;;7.27;100.00;102568.01;1737383;78;938724;-73
2022/04/27 01:09:26;;;;;;;60.07;55.97;;;;;;;7.01;100.00;102574.23;1807238;78;938682;-72
2022/04/27 01:15:13;;;;;;;62.47;58.13;;;;;;;7.14;100.00;102568.64;1980104;71;39640;-71
2022/04/27 01:20:57;;;;;;;64.30;60.10;;;;;;;7.12;100.00;102570.76;1848621;76;86697;-73
2022/04/27 01:26:42;;;;;;;60.10;56.00;;;;;;;6.99;100.00;102575.81;1893600;74;85418;-74
2022/04/27 01:32:26;;;;;;;59.23;55.17;;;;;;;7.11;100.00;102578.20;1866068;75;85969;-71
2022/04/27 01:38:10;;;;;;;60.70;56.50;;;;;;;6.84;100.00;102582.16;1981675;71;39693;-72
2022/04/27 01:43:55;;;;;;;58.40;54.30;;;;;;;7.09;100.00;102586.41;1848744;76;86347;-71
2022/04/27 01:49:39;;;;;;;60.00;55.90;;;;;;;6.77;100.00;102588.22;1826502;78;85706;-72
2022/04/27 01:55:24;;;;;;;60.13;55.80;;;;;;;6.47;100.00;102592.02;1900271;73;86143;-72
2022/04/27 02:01:10;;;;;;;59.13;54.97;;;;;;;6.85;100.00;102587.98;1979381;71;39648;-70
2022/04/27 02:06:53;;;;;;;58.47;54.47;;;;;;;7.09;100.00;102598.31;1841614;75;86481;-72
2022/04/27 02:12:37;;;;;;;58.37;54.37;;;;;;;6.80;100.00;102603.82;1872089;75;85945;-74
2022/04/27 02:18:23;;;;;;;58.03;53.90;;;;;;;6.73;100.00;102615.97;1903461;72;86382;-73
2022/04/27 02:24:09;;;;;;;56.93;52.97;;;;;;;6.41;100.00;102620.51;1975099;71;39833;-72
2022/04/27 02:29:53;;;;;;;56.03;52.13;;;;;;;6.33;100.00;102625.70;1845808;76;86244;-71
2022/04/27 02:35:37;;;;;;;58.87;54.77;;;;;;;6.37;100.00;102628.34;1886868;75;85522;-71
2022/04/27 02:41:22;;;;;;;58.90;54.57;;;;;;;6.39;100.00;102625.38;1926764;73;86437;-74
2022/04/27 02:47:07;;;;;;;57.53;53.53;;;;;;;6.51;100.00;102634.70;1925933;71;39540;-74
2022/04/27 02:52:51;;;;;;;57.43;53.23;;;;;;;6.56;100.00;102629.39;1881280;75;86049;-73
2022/04/27 02:58:34;;;;;;;57.30;53.20;;;;;;;6.84;100.00;102627.73;1836964;77;86517;-71
2022/04/27 03:04:18;;;;;;;60.10;56.10;;;;;;;6.95;100.00;102625.67;1917208;72;86680;-71
2022/04/27 03:10:03;;;;;;;61.00;56.90;;;;;;;6.96;100.00;102620.47;1807158;78;85933;-73
2022/04/27 03:15:50;;;;;;;59.30;55.23;;;;;;;6.83;100.00;102626.89;1898628;74;86018;-73
2022/04/27 03:21:34;;;;;;;58.47;54.37;;;;;;;6.99;100.00;102619.17;1836880;76;86433;-72
2022/04/27 03:27:20;;;;;;;57.37;53.37;;;;;;;7.29;100.00;102621.17;1909050;73;86458;-74
2022/04/27 03:33:07;;;;;;;59.43;55.23;;;;;;;7.30;100.00;102619.25;1944159;71;39715;-70
2022/04/27 03:38:51;;;;;;;59.27;54.90;;;;;;;7.33;100.00;102621.04;1881365;75;86104;-72
2022/04/27 03:44:35;;;;;;;60.90;56.57;;;;;;;7.45;100.00;102623.09;1872626;75;86305;-70
2022/04/27 03:50:20;;;;;;;59.00;55.10;;;;;;;7.59;100.00;102625.57;1917960;74;85812;-74
2022/04/27 03:56:05;;;;;;;62.30;58.10;;;;;;;7.44;100.00;102626.95;1895014;74;86332;-72
2022/04/27 04:01:48;;;;;;;61.47;57.27;;;;;;;7.45;100.00;102628.62;1768037;78;85600;-72
2022/04/27 04:07:31;;;;;;;59.57;55.37;;;;;;;7.47;100.00;102627.88;1866546;76;85586;-71
2022/04/27 04:13:14;;;;;;;59.83;55.67;;;;;;;7.68;100.00;102628.92;1985516;71;39714;-72
2022/04/27 04:18:58;;;;;;;60.73;56.63;;;;;;;7.52;100.00;102638.59;1879242;75;86559;-71
2022/04/27 04:28:29;;;;;;;58.80;54.67;;;;;;;7.57;100.00;102637.38;1877102;75;85240;-72
2022/04/27 04:30:29;;;;;;;61.10;56.60;;;;;;;7.82;100.00;102638.84;1806085;77;86340;-70
2022/04/27 04:36:14;;;;;;;59.90;55.80;;;;;;;7.56;100.00;102643.15;1963171;71;39725;-72
2022/04/27 04:41:58;;;;;;;60.50;56.50;;;;;;;8.05;100.00;102643.22;1836966;76;85272;-70
2022/04/27 04:47:42;;;;;;;61.73;57.53;;;;;;;7.77;100.00;102640.03;1895319;73;86324;-71
2022/04/27 04:53:27;;;;;;;60.27;56.27;;;;;;;7.90;100.00;102637.17;1799125;77;86701;-74
2022/04/27 04:59:09;;;;;;;61.63;57.50;;;;;;;7.87;100.00;102641.78;1926558;71;39565;-72
2022/04/27 05:04:53;;;;;;;60.57;56.57;;;;;;;7.89;100.00;102639.63;1836887;76;86293;-71
2022/04/27 05:10:38;;;;;;;61.67;57.47;;;;;;;8.09;100.00;102640.84;1888895;73;86071;-71
2022/04/27 05:16:25;;;;;;;62.20;58.10;;;;;;;8.21;100.00;102652.34;1911407;73;86520;-73
2022/04/27 05:22:08;;;;;;;61.27;57.07;;;;;;;8.23;100.00;102652.98;1978963;71;39506;-73
2022/04/27 05:27:52;;;;;;;59.50;55.77;;;;;;;8.23;100.00;102664.59;1836610;76;86603;-72
2022/04/27 05:33:39;;;;;;;59.07;55.67;;;;;;;8.30;100.00;102666.78;1873703;75;86629;-74
2022/04/27 05:39:23;;;;;;;60.13;56.73;;;;;;;8.44;100.00;102675.30;1914760;74;86332;-74
2022/04/27 05:45:10;;;;;;;63.57;59.57;;;;;;;8.54;100.00;102676.18;1929067;71;39679;-72
2022/04/27 05:50:54;;;;;;;61.47;57.90;;;;;;;8.72;100.00;102676.77;1816142;77;86273;-72
2022/04/27 05:56:38;;;;;;;53.37;50.50;;;;;;;8.80;100.00;102682.00;1934282;73;86265;-74
2022/04/27 06:02:21;;;;;;;52.73;49.90;;;;;;;8.74;100.00;102682.37;1932950;72;86161;-73
2022/04/27 06:08:06;;;;;;;53.47;50.33;;;;;;;9.01;100.00;102685.72;1975300;71;39581;-75
2022/04/27 06:13:51;;;;;;;53.63;50.77;;;;;;;9.18;100.00;102692.88;1893486;74;86317;-73
2022/04/27 06:19:35;;;;;;;48.30;45.90;;;;;;;9.17;100.00;102695.34;1802878;77;86600;-72
2022/04/27 06:25:19;;;;;;;51.60;48.83;;;;;;;9.29;100.00;102688.78;1932459;73;86458;-74
2022/04/27 06:31:03;;;;;;;52.40;49.67;;;;;;;9.32;100.00;102704.98;1802882;78;86311;-75
2022/04/27 06:36:48;;;;;;;54.83;51.97;;;;;;;9.19;100.00;102705.14;1798780;78;86378;-73
2022/04/27 06:42:31;;;;;;;51.03;48.43;;;;;;;9.35;100.00;102724.47;1876856;75;85482;-74
2022/04/27 06:48:19;;;;;;;52.70;50.00;;;;;;;9.48;100.00;102716.83;1983959;71;39455;-72
2022/04/27 06:54:04;;;;;;;49.50;46.80;;;;;;;9.66;100.00;102715.97;1804186;78;86733;-73
2022/04/27 06:59:47;;;;;;;47.87;45.27;;;;;;;9.71;100.00;102721.67;1803189;78;86499;-73
2022/04/27 07:05:31;;;;;;;43.50;40.97;;;;;;;9.83;100.00;102718.94;1868392;75;86017;-72
2022/04/27 07:11:15;;;;;;;45.50;43.10;;;;;;;10.06;100.00;102719.01;1986745;71;39709;-76
2022/04/27 07:17:00;;;;;;;41.40;39.30;;;;;;;10.14;100.00;102727.00;1842394;76;86244;-74
2022/04/27 07:22:44;;;;;;;42.90;40.60;;;;;;;10.25;100.00;102723.47;1894396;74;86362;-75
2022/04/27 07:28:28;;;;;;;34.10;32.30;;;;;;;10.15;100.00;102733.41;1876188;75;86184;-76
2022/04/27 07:34:13;;;;;;;34.87;33.17;;;;;;;10.44;100.00;102730.62;1983254;71;39500;-75
2022/04/27 07:40:01;;;;;;;32.53;30.83;;;;;;;10.53;100.00;102726.10;1825645;76;86455;-74
2022/04/27 07:45:48;;;;;;;33.33;31.67;;;;;;;10.61;100.00;102726.59;1832233;77;86316;-74
2022/04/27 07:51:32;;;;;;;22.00;20.90;;;;;;;10.86;100.00;102735.59;1863509;75;85483;-72
2022/04/27 07:57:16;;;;;;;29.60;28.30;;;;;;;10.85;100.00;102735.27;1917992;72;39430;-73
2022/04/27 08:02:59;;;;;;;24.83;23.60;;;;;;;10.99;100.00;102736.43;1831819;76;86095;-74
2022/04/27 08:08:43;;;;;;;22.30;21.10;;;;;;;10.99;100.00;102740.06;1885490;74;86290;-74
2022/04/27 08:14:28;;;;;;;19.20;18.30;;;;;;;11.01;100.00;102753.70;1871845;75;85923;-73
2022/04/27 08:26:25;;;;;;;20.20;19.30;;;;;;;10.67;100.00;102774.28;1908175;74;85497;-75
2022/04/27 08:32:10;;;;;;;20.63;19.60;;;;;;;10.72;100.00;102780.52;1961445;71;39700;-78
2022/04/27 08:41:09;;;;;;;19.90;18.90;;;;;;;11.05;100.00;102785.50;1981996;71;39437;-77
2022/04/27 08:46:55;;;;;;;20.83;19.73;;;;;;;11.09;100.00;102779.76;1846132;76;85932;-72
2022/04/27 08:52:41;;;;;;;19.27;18.37;;;;;;;11.35;100.00;102785.68;1845156;76;86937;-74
2022/04/27 08:58:25;;;;;;;21.80;20.53;;;;;;;11.18;100.00;102790.28;1912585;74;85429;-75
2022/04/27 09:04:18;;;;;;;17.87;16.97;;;;;;;11.29;100.00;102796.41;1974667;71;39712;-73
2022/04/27 09:10:02;;;;;;;17.97;16.97;;;;;;;11.52;100.00;102797.45;1984323;70;86006;-75
2022/04/27 09:15:48;;;;;;;16.40;15.57;;;;;;;11.54;100.00;102789.18;1801676;78;86589;-74
2022/04/27 09:21:31;;;;;;;17.60;16.60;;;;;;;11.37;100.00;102792.41;1809017;77;86769;-73
2022/04/27 09:27:20;;;;;;;17.10;16.13;;;;;;;11.57;100.00;102799.81;1942225;72;86342;-73
2022/04/27 09:33:13;;;;;;;16.33;15.43;;;;;;;11.62;100.00;102795.76;1975688;71;39704;-71
2022/04/27 09:38:58;;;;;;;15.30;14.50;;;;;;;12.06;100.00;102782.23;1838302;76;86279;-78
2022/04/27 09:44:56;;;;;;;14.20;13.60;;;;;;;12.07;100.00;102789.47;1838074;76;85605;-79
2022/04/27 09:50:59;;;;;;;13.77;13.17;;;;;;;12.11;100.00;102787.88;1885475;74;86469;-71
2022/04/27 09:56:44;;;;;;;13.63;13.03;;;;;;;12.30;100.00;102786.59;1906651;74;85616;-73
2022/04/27 10:02:31;;;;;;;13.63;13.03;;;;;;;12.37;100.00;102794.78;1807553;78;86382;-72
2022/04/27 10:08:16;;;;;;;14.20;13.30;;;;;;;12.34;100.00;102793.36;1980524;71;39568;-74
2022/04/27 10:14:03;;;;;;;13.20;12.57;;;;;;;12.14;100.00;102791.03;1841036;76;86647;-73
2022/04/27 10:19:48;;;;;;;12.73;12.13;;;;;;;12.13;100.00;102785.70;1854901;76;86597;-74
2022/04/27 10:26:23;;;;;;;13.30;12.60;;;;;;;12.29;100.00;102775.99;1898910;74;85540;-72
2022/04/27 10:32:10;;;;;;;13.47;12.77;;;;;;;12.40;100.00;102782.63;1977277;71;39454;-73
2022/04/27 10:37:57;;;;;;;13.60;12.90;;;;;;;12.27;100.00;102787.10;1842840;76;86612;-73
2022/04/27 10:43:48;;;;;;;13.23;12.53;;;;;;;12.46;100.00;102783.53;1808019;78;86313;-72
2022/04/27 10:49:54;;;;;;;13.27;12.27;;;;;;;12.30;100.00;102776.84;1884655;74;86164;-71
2022/04/27 10:55:50;;;;;;;12.43;11.83;;;;;;;12.45;100.00;102777.11;1838861;76;86618;-74
2022/04/27 11:01:34;;;;;;;12.83;12.03;;;;;;;12.42;100.00;102780.41;1806229;77;86157;-73
2022/04/27 11:07:40;;;;;;;12.77;12.10;;;;;;;12.48;100.00;102770.20;1942341;71;86175;-73
2022/04/27 11:13:35;;;;;;;13.17;12.37;;;;;;;12.28;100.00;102780.41;1799089;77;86380;-78
2022/04/27 11:19:25;;;;;;;13.00;12.20;;;;;;;12.28;100.00;102770.66;1924490;72;86421;-72
2022/04/27 11:25:10;;;;;;;12.57;11.97;;;;;;;12.16;100.00;102773.51;1980390;71;39688;-72
2022/04/27 11:30:55;;;;;;;13.67;12.67;;;;;;;12.41;100.00;102772.32;1836681;75;86094;-72
2022/04/27 11:36:39;;;;;;;13.23;12.50;;;;;;;12.45;100.00;102768.75;1942942;73;86612;-74
2022/04/27 11:42:22;;;;;;;14.10;13.23;;;;;;;12.38;100.00;102778.38;1909173;72;86365;-75
2022/04/27 11:48:10;;;;;;;13.00;12.30;;;;;;;12.42;100.00;102779.56;1957310;71;39749;-74
2022/04/27 11:53:54;;;;;;;12.53;11.83;;;;;;;12.60;100.00;102770.98;1836030;75;86519;-73
2022/04/27 11:59:43;;;;;;;12.53;11.67;;;;;;;12.57;100.00;102770.95;1899725;73;85269;-72
2022/04/27 12:05:32;;;;;;;12.13;11.57;;;;;;;12.28;100.00;102777.62;1807849;77;86305;-78
2022/04/27 12:11:23;;;;;;;12.90;12.20;;;;;;;12.49;100.00;102782.52;1927577;71;39761;-77
2022/04/27 12:17:08;;;;;;;12.63;11.93;;;;;;;12.63;100.00;102781.62;1986482;71;39779;-73
2022/04/27 12:22:55;;;;;;;12.97;12.30;;;;;;;12.65;100.00;102773.31;1843720;75;85718;-74
2022/04/27 12:28:49;;;;;;;12.93;12.20;;;;;;;12.55;100.00;102770.88;1799687;78;85589;-75
2022/04/27 12:40:43;;;;;;;12.57;11.87;;;;;;;13.07;100.00;102764.51;1890402;74;85237;-73
2022/04/27 12:46:29;;;;;;;13.33;12.43;;;;;;;12.93;100.00;102757.58;1859449;76;86251;-77
2022/04/27 12:52:17;;;;;;;12.70;11.80;;;;;;;12.82;100.00;102765.49;1973626;71;39526;-74
2022/04/27 12:58:01;;;;;;;13.20;12.30;;;;;;;12.66;100.00;102761.04;1841584;76;86553;-74
2022/04/27 13:03:54;;;;;;;12.97;12.17;;;;;;;12.59;100.00;102752.00;1848471;76;86318;-75
2022/04/27 13:15:46;;;;;;;12.10;11.60;;;;;;;12.66;100.00;102744.89;1907071;74;86352;-74
2022/04/27 13:21:30;;;;;;;11.80;11.10;;;;;;;12.74;100.00;102741.13;1864908;75;86316;-77
2022/04/27 13:27:13;;;;;;;12.30;11.30;;;;;;;12.95;100.00;102740.90;1982456;71;39508;-77
2022/04/27 13:32:58;;;;;;;11.80;11.20;;;;;;;12.66;100.00;102744.31;1837691;76;86447;-72
2022/04/27 13:38:43;;;;;;;12.30;11.30;;;;;;;13.08;100.00;102736.91;1900862;73;86360;-74
2022/04/27 13:44:29;;;;;;;11.97;11.17;;;;;;;12.91;100.00;102737.48;1861554;76;86227;-72
2022/04/27 13:50:13;;;;;;;12.20;11.40;;;;;;;12.93;100.00;102733.32;1976016;71;39497;-74
2022/04/27 13:59:15;;;;;;;12.07;11.37;;;;;;;13.20;100.00;102714.80;1977946;71;39598;-77
2022/04/27 14:05:00;;;;;;;11.83;11.23;;;;;;;13.28;100.00;102712.66;1837017;76;86030;-78
2022/04/27 14:10:44;;;;;;;11.73;11.03;;;;;;;13.14;100.00;102713.02;1904025;73;86458;-73
2022/04/27 14:22:30;;;;;;;12.83;12.03;;;;;;;13.23;100.00;102717.06;1860790;76;85441;-72
2022/04/27 14:28:15;;;;;;;11.67;10.97;;;;;;;13.06;100.00;102723.75;1977732;71;39543;-72
2022/04/27 14:34:00;;;;;;;11.73;11.03;;;;;;;13.11;100.00;102720.52;1837254;76;86385;-77
2022/04/27 14:39:44;;;;;;;11.70;11.10;;;;;;;13.32;100.00;102711.88;1906189;73;85410;-71
2022/04/27 14:45:29;;;;;;;12.80;11.90;;;;;;;13.32;100.00;102708.24;1809154;77;85589;-71
2022/04/27 14:51:13;;;;;;;12.30;11.50;;;;;;;13.24;100.00;102713.73;1978867;71;39648;-71
2022/04/27 14:56:57;;;;;;;12.20;11.50;;;;;;;13.19;100.00;102719.23;1795834;78;86255;-68
2022/04/27 15:02:44;;;;;;;13.73;12.87;;;;;;;13.17;100.00;102722.84;1885248;74;86421;-72
2022/04/27 15:08:28;;;;;;;12.87;11.90;;;;;;;13.40;100.00;102723.14;1861452;76;86081;-73
2022/04/27 15:14:12;;;;;;;12.67;11.93;;;;;;;13.23;100.00;102720.41;1987222;71;39540;-71
2022/04/27 15:25:58;;;;;;;13.47;12.57;;;;;;;13.02;100.00;102731.79;1837278;76;86562;-72
2022/04/27 15:31:42;;;;;;;14.23;13.33;;;;;;;12.92;100.00;102725.23;1873078;74;85528;-75
2022/04/27 15:37:26;;;;;;;15.00;13.90;;;;;;;13.01;100.00;102723.12;1872236;75;86307;-79
2022/04/27 15:43:09;;;;;;;14.47;13.47;;;;;;;12.73;100.00;102725.48;1984232;71;39401;-73
2022/04/27 15:48:54;;;;;;;15.73;14.73;;;;;;;12.52;100.00;102726.25;1830228;76;86609;-74
2022/04/27 15:54:38;;;;;;;14.40;13.50;;;;;;;12.48;100.00;102727.00;1867521;76;86291;-75
2022/04/27 16:00:23;;;;;;;14.90;13.77;;;;;;;12.66;100.00;102721.19;1939561;71;85354;-78
2022/04/27 16:06:07;;;;;;;13.40;12.70;;;;;;;12.69;100.00;102720.67;1984929;71;39563;-77
2022/04/27 16:11:51;;;;;;;14.60;13.57;;;;;;;12.72;100.00;102726.58;1881453;75;86367;-75
2022/04/27 16:17:38;;;;;;;14.17;12.97;;;;;;;12.63;100.00;102722.52;1890297;75;85642;-76
2022/04/27 16:23:24;;;;;;;13.93;12.93;;;;;;;12.60;100.00;102724.97;1914090;72;86167;-74
2022/04/27 16:29:10;;;;;;;12.80;11.87;;;;;;;12.48;100.00;102732.03;1983958;71;39476;-77
2022/04/27 16:34:56;;;;;;;15.00;13.70;;;;;;;12.38;100.00;102733.23;1848788;76;85383;-72
2022/04/27 16:40:41;;;;;;;13.47;12.67;;;;;;;12.35;100.00;102738.47;1907106;73;86609;-77
2022/04/27 16:46:26;;;;;;;13.93;12.87;;;;;;;12.38;100.00;102736.02;1911356;73;86361;-78
2022/04/27 16:52:10;;;;;;;14.83;13.67;;;;;;;12.27;100.00;102739.73;1954444;71;39643;-74
2022/04/27 16:57:53;;;;;;;13.03;12.13;;;;;;;12.27;100.00;102740.58;1833689;76;85637;-75
2022/04/27 17:03:40;;;;;;;13.83;12.83;;;;;;;12.27;100.00;102738.34;1881098;75;85311;-74
2022/04/27 17:09:24;;;;;;;14.47;13.33;;;;;;;12.16;100.00;102742.86;1918535;72;86384;-72
2022/04/27 17:15:09;;;;;;;13.40;12.60;;;;;;;12.22;100.00;102734.06;1961052;71;39587;-72
2022/04/27 17:20:55;;;;;;;13.30;12.40;;;;;;;12.35;100.00;102724.53;1831131;76;86026;-74
2022/04/27 17:32:42;;;;;;;13.43;12.33;;;;;;;12.16;100.00;102721.97;1903783;73;86075;-74
2022/04/27 17:38:26;;;;;;;14.03;12.93;;;;;;;12.14;100.00;102715.81;1920528;72;85217;-80
2022/04/27 17:44:12;;;;;;;14.20;13.10;;;;;;;12.01;100.00;102713.34;1941678;71;39520;-73
2022/04/27 17:50:00;;;;;;;14.60;13.30;;;;;;;12.23;100.00;102716.25;1851764;76;86652;-74
2022/04/27 17:55:45;;;;;;;13.50;12.53;;;;;;;12.27;100.00;102727.19;1905512;74;86018;-74
2022/04/27 18:01:29;;;;;;;14.13;13.10;;;;;;;12.07;100.00;102729.03;1875259;75;86411;-76
2022/04/27 18:07:14;;;;;;;13.60;12.47;;;;;;;12.04;100.00;102732.33;1978946;71;40278;-70
2022/04/27 18:13:00;;;;;;;12.80;11.90;;;;;;;12.26;100.00;102738.88;1843950;76;86514;-78
2022/04/27 18:18:45;;;;;;;13.43;12.17;;;;;;;11.90;100.00;102735.64;1867215;75;86563;-78
2022/04/27 18:24:34;;;;;;;13.87;12.70;;;;;;;12.00;100.00;102733.92;1801485;77;86361;-73
2022/04/27 18:30:22;;;;;;;12.47;11.50;;;;;;;11.93;100.00;102746.31;1866246;75;86001;-77
2022/04/27 18:36:06;;;;;;;13.73;12.77;;;;;;;11.92;100.00;102744.06;1795280;78;85318;-76
2022/04/27 18:41:50;;;;;;;13.70;12.57;;;;;;;12.03;100.00;102745.09;1890402;74;86333;-78
2022/04/27 18:53:38;;;;;;;13.73;12.57;;;;;;;11.70;100.00;102769.47;1882349;75;86512;-74
2022/04/27 18:59:21;;;;;;;13.13;12.07;;;;;;;11.63;100.00;102778.52;1902267;72;85503;-75
2022/04/27 19:05:07;;;;;;;13.30;12.47;;;;;;;11.73;100.00;102782.37;1987767;71;39501;-77
2022/04/27 19:10:51;;;;;;;14.27;13.27;;;;;;;11.52;100.00;102783.53;1875777;74;86267;-76
2022/04/27 19:16:37;;;;;;;13.40;12.40;;;;;;;11.56;100.00;102781.41;1897866;75;85969;-73
2022/04/27 19:22:21;;;;;;;12.17;11.27;;;;;;;11.43;100.00;102799.77;1911550;73;86312;-73
2022/04/27 19:28:06;;;;;;;12.13;11.33;;;;;;;11.43;100.00;102802.55;1986034;71;39550;-73
2022/04/27 19:33:50;;;;;;;13.07;12.23;;;;;;;11.50;100.00;102796.33;1889856;74;85410;-73
2022/04/27 19:39:35;;;;;;;12.77;11.97;;;;;;;11.45;100.00;102818.47;1876158;75;85449;-74
2022/04/27 19:45:20;;;;;;;13.17;12.07;;;;;;;11.32;100.00;102822.34;1916401;73;86034;-71
2022/04/27 19:51:05;;;;;;;13.37;12.40;;;;;;;11.27;100.00;102829.72;1810415;78;86226;-74
2022/04/27 19:56:51;;;;;;;14.60;13.27;;;;;;;11.31;100.00;102840.13;1912222;74;85236;-73
2022/04/27 20:02:36;;;;;;;13.93;12.77;;;;;;;11.29;100.00;102848.42;1808125;77;86368;-75
2022/04/27 20:08:22;;;;;;;17.80;16.40;;;;;;;11.25;100.00;102856.95;1910455;73;85263;-74
2022/04/27 20:14:07;;;;;;;19.83;18.33;;;;;;;11.14;100.00;102867.50;1984139;71;39656;-72
2022/04/27 20:19:51;;;;;;;19.13;17.73;;;;;;;11.13;100.00;102877.78;1875710;76;86108;-73
2022/04/27 20:25:36;;;;;;;20.17;18.57;;;;;;;11.20;100.00;102892.98;1875841;75;86238;-77
2022/04/27 20:31:24;;;;;;;22.60;20.50;;;;;;;11.09;100.00;102898.81;1903637;72;85673;-76
2022/04/27 20:37:08;;;;;;;19.40;17.93;;;;;;;10.99;100.00;102896.33;1986393;71;39621;-73
2022/04/27 20:42:54;;;;;;;20.70;18.93;;;;;;;10.87;100.00;102902.69;1848870;76;86201;-72
2022/04/27 20:48:38;;;;;;;19.67;18.30;;;;;;;10.84;100.00;102905.95;1871901;76;85250;-74
2022/04/27 20:54:24;;;;;;;18.97;17.37;;;;;;;10.73;100.00;102912.88;1959056;71;86177;-79
2022/04/27 21:00:12;;;;;;;19.30;17.63;;;;;;;10.75;100.00;102918.48;1977718;71;39619;-73
2022/04/27 21:05:57;;;;;;;18.83;17.20;;;;;;;10.71;100.00;102916.41;1829201;75;85395;-74
2022/04/27 21:11:42;;;;;;;19.60;18.03;;;;;;;10.63;100.00;102920.91;1869886;75;85344;-71
2022/04/27 21:17:26;;;;;;;18.87;17.43;;;;;;;10.61;100.00;102916.15;1920171;72;85727;-72
2022/04/27 21:26:16;;;;;;;17.30;16.30;;;;;;;10.42;100.00;102934.23;1979057;69;39494;-72
2022/04/27 21:28:47;;;;;;;18.70;17.30;;;;;;;10.43;100.00;102930.92;1926152;73;936911;-72
2022/04/27 21:31:17;;;;;;;18.17;16.90;;;;;;;10.43;100.00;102928.14;1915845;73;940763;-73
2022/04/27 21:33:47;;;;;;;18.33;16.87;;;;;;;10.39;100.00;102933.33;1922692;73;938900;-72
2022/04/27 21:36:17;;;;;;;18.98;17.37;;;;;;;10.34;100.00;102929.00;1890826;73;955650;-72
2022/04/27 21:38:48;;;;;;;18.63;17.40;;;;;;;10.32;100.00;102934.47;1871607;74;939085;-72
2022/04/27 21:41:19;;;;;;;18.53;17.33;;;;;;;10.22;100.00;102930.87;1840807;76;941263;-72
2022/04/27 21:43:49;;;;;;;18.07;16.57;;;;;;;10.24;100.00;102938.95;1829997;76;939065;-72
2022/04/27 21:46:20;;;;;;;18.67;17.57;;;;;;;10.26;100.00;102934.02;1856672;76;941096;-72
2022/04/27 21:48:50;;;;;;;18.63;17.30;;;;;;;10.23;100.00;102938.09;1885843;74;938815;-72
2022/04/27 21:51:20;;;;;;;18.60;17.30;;;;;;;10.24;100.00;102940.34;1870965;74;940766;-72
2022/04/27 21:53:50;;;;;;;20.93;19.30;;;;;;;10.20;100.00;102938.57;1893339;74;939061;-73
2022/04/27 21:59:34;;;;;;;21.70;20.03;;;;;;;10.19;100.00;102949.36;1826674;77;86323;-73
2022/04/27 22:05:20;;;;;;;24.20;22.60;;;;;;;10.01;100.00;102951.56;1929710;72;86321;-72
2022/04/27 22:11:05;;;;;;;21.60;20.20;;;;;;;10.01;100.00;102954.91;1890997;74;85378;-73
2022/04/27 22:16:50;;;;;;;21.63;20.03;;;;;;;9.96;100.00;102963.06;1890604;74;86433;-73
2022/04/27 22:22:35;;;;;;;19.83;18.43;;;;;;;10.12;100.00;102954.66;1843533;75;86489;-74
2022/04/27 22:28:18;;;;;;;20.87;19.13;;;;;;;10.08;100.00;102946.48;1929685;73;86157;-74
2022/04/27 22:34:02;;;;;;;18.70;17.37;;;;;;;10.05;100.00;102949.20;1821042;76;86524;-72
2022/04/27 22:39:48;;;;;;;19.87;18.57;;;;;;;9.79;100.00;102958.66;1842348;76;86632;-73
2022/04/27 22:45:33;;;;;;;21.60;20.07;;;;;;;9.82;100.00;102966.52;1864445;75;86358;-72
2022/04/27 22:51:18;;;;;;;21.17;19.63;;;;;;;9.66;100.00;102967.64;1872871;74;86100;-73
2022/04/27 22:57:02;;;;;;;22.23;20.80;;;;;;;9.53;100.00;102975.55;1935672;72;86000;-73
2022/04/27 23:02:46;;;;;;;21.00;19.70;;;;;;;9.54;100.00;102975.86;1876843;75;85999;-72
2022/04/27 23:14:30;;;;;;;21.70;20.20;;;;;;;9.48;100.00;102972.59;1805695;77;86689;-73
2022/04/27 23:20:14;;;;;;;18.50;17.27;;;;;;;9.66;100.00;102967.10;1976676;71;39688;-72
2022/04/27 23:25:56;;;;;;;19.27;17.87;;;;;;;9.64;100.00;102965.61;1971672;72;86047;-72
2022/04/27 23:31:41;;;;;;;19.17;17.67;;;;;;;9.66;100.00;102979.59;1884147;74;86002;-72
2022/04/27 23:37:25;;;;;;;21.27;19.77;;;;;;;9.45;100.00;102975.83;1913943;72;86009;-74
2022/04/27 23:43:13;;;;;;;22.83;20.50;;;;;;;9.40;100.00;102973.73;1939002;71;39703;-73
2022/04/27 23:48:58;;;;;;;20.97;19.47;;;;;;;9.44;100.00;102968.58;1828287;76;86129;-73
2022/04/27 23:54:43;;;;;;;19.77;18.40;;;;;;;9.74;100.00;102958.48;1909321;73;86389;-74
